Time;durP1;ratioP1;P1;durP2;ratioP2;P2;SDS_P1;SDS_P2;PMS_P1;PMS_P2;Temp;Humidity;BMP_temperature;BMP_pressure;BME280_temperature;BME280_humidity;BME280_pressure;Samples;Min_cycle;Max_cycle;Signal;HPM_P1;HPM_P2
2023/01/14 00:00:33;;;;;;;0.47;0.27;;;5.40;99.90;;;;;;5073499;28;20199;-51
2023/01/14 00:03:00;;;;;;;1.30;0.27;;;5.40;99.90;;;;;;5072111;28;20202;-51
2023/01/14 00:05:27;;;;;;;0.63;0.40;;;5.40;99.90;;;;;;5072802;28;20214;-50
2023/01/14 00:07:54;;;;;;;0.53;0.17;;;5.30;99.90;;;;;;5072648;28;20276;-51
2023/01/14 00:10:21;;;;;;;0.47;0.20;;;5.30;99.90;;;;;;5070180;28;20588;-51
2023/01/14 00:12:50;;;;;;;2.43;0.20;;;5.30;99.90;;;;;;5071917;28;20211;-51
2023/01/14 00:15:17;;;;;;;0.30;0.20;;;5.30;99.90;;;;;;5066485;28;20218;-51
2023/01/14 00:17:47;;;;;;;1.73;0.63;;;5.40;99.90;;;;;;5070960;28;20210;-51
2023/01/14 00:20:15;;;;;;;2.00;0.40;;;5.30;99.90;;;;;;5073167;28;20218;-52
2023/01/14 00:22:42;;;;;;;3.07;0.60;;;5.30;99.90;;;;;;5072083;28;20211;-50
2023/01/14 00:25:10;;;;;;;1.00;0.40;;;5.30;99.90;;;;;;5079853;28;20208;-51
2023/01/14 00:27:37;;;;;;;0.30;0.20;;;5.30;99.90;;;;;;5073090;28;20342;-52
2023/01/14 00:30:06;;;;;;;0.83;0.20;;;5.20;99.90;;;;;;5073040;28;20227;-51
2023/01/14 00:32:33;;;;;;;2.33;0.30;;;5.20;99.90;;;;;;5073262;28;20209;-51
2023/01/14 00:35:00;;;;;;;0.57;0.30;;;5.10;99.90;;;;;;5073064;28;20225;-50
2023/01/14 00:37:27;;;;;;;0.40;0.40;;;5.20;99.90;;;;;;5072447;28;20270;-51
2023/01/14 00:39:54;;;;;;;1.90;0.20;;;5.10;99.90;;;;;;5067952;28;20561;-51
2023/01/14 00:42:21;;;;;;;2.60;0.30;;;5.10;99.90;;;;;;5067378;28;20200;-51
2023/01/14 00:44:48;;;;;;;0.93;0.40;;;5.00;99.90;;;;;;5072474;28;20199;-51
2023/01/14 00:47:16;;;;;;;1.10;0.20;;;5.00;99.90;;;;;;5072501;28;20214;-51
2023/01/14 00:49:43;;;;;;;0.63;0.40;;;4.90;99.90;;;;;;5070440;28;20229;-51
2023/01/14 00:52:12;;;;;;;2.70;0.40;;;5.00;99.90;;;;;;5070675;28;20207;-50
2023/01/14 00:54:39;;;;;;;4.93;0.77;;;4.90;99.90;;;;;;5072919;28;20739;-52
2023/01/14 00:57:06;;;;;;;1.73;0.50;;;4.90;99.90;;;;;;5072031;28;20205;-52
2023/01/14 00:59:33;;;;;;;2.50;0.50;;;4.80;99.90;;;;;;5072254;28;20234;-51
2023/01/14 01:02:01;;;;;;;2.43;0.63;;;4.70;99.90;;;;;;5071673;28;20210;-51
2023/01/14 01:04:29;;;;;;;0.23;0.10;;;4.70;99.90;;;;;;5072331;28;20216;-51
2023/01/14 01:06:56;;;;;;;0.50;0.50;;;4.60;99.90;;;;;;5069190;28;20222;-50
2023/01/14 01:09:23;;;;;;;1.23;0.30;;;4.70;99.90;;;;;;5072347;28;20227;-52
2023/01/14 01:11:50;;;;;;;0.10;0.10;;;4.70;99.90;;;;;;5071297;28;20210;-51
2023/01/14 01:14:17;;;;;;;1.40;0.60;;;4.70;99.90;;;;;;5072081;28;20218;-52
2023/01/14 01:16:44;;;;;;;0.50;0.27;;;4.60;99.90;;;;;;5072333;28;20716;-51
2023/01/14 01:19:11;;;;;;;1.40;0.67;;;4.60;99.90;;;;;;5071843;28;20273;-51
2023/01/14 01:21:40;;;;;;;1.10;0.20;;;4.50;99.90;;;;;;5070154;28;20239;-51
2023/01/14 01:24:07;;;;;;;0.63;0.30;;;4.40;99.90;;;;;;5072018;28;20213;-51
2023/01/14 01:26:34;;;;;;;0.87;0.30;;;4.50;99.90;;;;;;5072197;28;20207;-51
2023/01/14 01:29:01;;;;;;;2.40;0.30;;;4.50;99.90;;;;;;5071734;28;20223;-50
2023/01/14 01:31:29;;;;;;;2.40;0.60;;;4.50;99.90;;;;;;5072151;28;20209;-51
2023/01/14 01:33:56;;;;;;;1.30;0.20;;;4.60;99.90;;;;;;5070538;28;20227;-52
2023/01/14 01:36:25;;;;;;;0.20;0.20;;;4.60;99.90;;;;;;5071705;28;20199;-50
2023/01/14 01:38:54;;;;;;;2.23;0.30;;;4.50;99.90;;;;;;5062161;28;20226;-51
2023/01/14 01:41:23;;;;;;;1.17;0.10;;;4.50;99.90;;;;;;5071722;28;20208;-51
2023/01/14 01:43:58;;;;;;;1.27;0.10;;;4.50;99.90;;;;;;5070817;28;20681;-51
2023/01/14 01:46:26;;;;;;;2.17;0.10;;;4.60;99.90;;;;;;5067444;28;20210;-51
2023/01/14 01:48:54;;;;;;;0.40;0.20;;;4.60;99.90;;;;;;5071480;28;20225;-51
2023/01/14 01:51:23;;;;;;;1.33;0.30;;;4.60;99.90;;;;;;5071630;28;20202;-51
2023/01/14 01:53:55;;;;;;;1.47;0.20;;;4.60;99.90;;;;;;5067982;28;20247;-51
2023/01/14 01:56:25;;;;;;;1.13;0.20;;;4.70;99.90;;;;;;5064233;28;20215;-51
2023/01/14 01:58:54;;;;;;;0.40;0.30;;;4.70;99.90;;;;;;5070798;28;20221;-51
2023/01/14 02:01:24;;;;;;;0.77;0.53;;;4.80;99.90;;;;;;5071442;28;20235;-51
2023/01/14 02:03:52;;;;;;;2.43;0.20;;;4.70;99.90;;;;;;5071436;28;20252;-51
2023/01/14 02:06:19;;;;;;;0.20;0.20;;;4.70;99.90;;;;;;5071343;28;20202;-51
2023/01/14 02:08:49;;;;;;;0.10;0.10;;;4.70;99.90;;;;;;5070043;28;20242;-51
2023/01/14 02:11:47;;;;;;;0.30;0.20;;;4.80;99.90;;;;;;5072537;28;20236;-52
2023/01/14 02:14:22;;;;;;;2.50;0.10;;;4.70;99.90;;;;;;5055031;28;20232;-51
2023/01/14 02:17:02;;;;;;;3.77;0.20;;;4.80;99.90;;;;;;5051145;28;20564;-51
2023/01/14 02:19:48;;;;;;;0.50;0.20;;;4.90;99.90;;;;;;5050754;28;20231;-51
2023/01/14 02:22:31;;;;;;;1.50;0.97;;;4.90;99.90;;;;;;5064991;28;20688;-51
2023/01/14 02:25:29;;;;;;;1.57;0.10;;;4.90;99.90;;;;;;5062966;28;20658;-50
2023/01/14 02:28:03;;;;;;;1.23;0.30;;;4.90;99.90;;;;;;5034279;28;20199;-51
2023/01/14 02:30:47;;;;;;;0.93;0.30;;;5.00;99.90;;;;;;5070992;28;20201;-51
2023/01/14 02:33:25;;;;;;;1.13;0.20;;;5.00;99.90;;;;;;5069795;28;20210;-51
2023/01/14 02:35:55;;;;;;;0.83;0.20;;;5.00;99.90;;;;;;5069777;28;20714;-50
2023/01/14 02:38:32;;;;;;;2.10;0.30;;;5.10;99.90;;;;;;5070287;28;20302;-51
2023/01/14 02:41:08;;;;;;;0.23;0.20;;;5.10;99.90;;;;;;5070914;28;20215;-53
2023/01/14 02:46:32;;;;;;;0.60;0.27;;;5.10;99.90;;;;;;5069663;28;20271;-51
2023/01/14 02:49:02;;;;;;;0.93;0.93;;;5.00;99.90;;;;;;5062581;28;20630;-52
2023/01/14 02:51:29;;;;;;;2.73;0.30;;;5.00;99.90;;;;;;5071124;28;20270;-51
2023/01/14 02:53:56;;;;;;;0.60;0.20;;;5.00;99.90;;;;;;5070659;28;20722;-51
2023/01/14 02:56:24;;;;;;;1.00;0.30;;;4.90;99.90;;;;;;5062487;28;20203;-52
2023/01/14 02:59:29;;;;;;;0.80;0.20;;;4.80;99.90;;;;;;5068478;28;20230;-51
2023/01/14 03:02:32;;;;;;;1.70;0.30;;;4.70;99.90;;;;;;5051260;28;20204;-51
2023/01/14 03:05:19;;;;;;;0.23;0.13;;;4.60;99.90;;;;;;5070780;28;20559;-52
2023/01/14 03:07:54;;;;;;;0.77;0.50;;;4.60;99.90;;;;;;5070394;28;20214;-50
2023/01/14 03:10:26;;;;;;;0.60;0.60;;;4.60;99.90;;;;;;5070397;28;20214;-51
2023/01/14 03:13:05;;;;;;;0.97;0.50;;;4.50;99.90;;;;;;5069219;28;20210;-51
2023/01/14 03:15:39;;;;;;;1.80;0.47;;;4.50;99.90;;;;;;5068423;28;20214;-51
2023/01/14 03:18:11;;;;;;;0.77;0.20;;;4.40;99.90;;;;;;5070017;28;20234;-51
2023/01/14 03:20:42;;;;;;;0.37;0.20;;;4.40;99.90;;;;;;5070082;28;20203;-51
2023/01/14 03:23:13;;;;;;;1.73;0.40;;;4.40;99.90;;;;;;5069050;28;20207;-51
2023/01/14 03:25:45;;;;;;;3.13;0.23;;;4.30;99.90;;;;;;5073602;28;20198;-51
2023/01/14 03:28:16;;;;;;;1.63;0.40;;;4.30;99.90;;;;;;5069573;28;20226;-52
2023/01/14 03:30:49;;;;;;;1.60;0.30;;;4.20;99.90;;;;;;5069452;28;20521;-51
2023/01/14 03:33:22;;;;;;;0.63;0.20;;;4.20;99.90;;;;;;5069934;28;20207;-52
2023/01/14 03:35:51;;;;;;;0.67;0.40;;;4.20;99.90;;;;;;5068925;28;20221;-51
2023/01/14 03:38:22;;;;;;;2.17;0.23;;;4.20;99.90;;;;;;5069722;28;20226;-51
2023/01/14 03:40:52;;;;;;;0.83;0.20;;;4.20;99.90;;;;;;5066524;28;20221;-51
2023/01/14 03:43:24;;;;;;;0.20;0.20;;;4.20;99.90;;;;;;5064821;28;20684;-51
2023/01/14 03:45:52;;;;;;;0.40;0.20;;;4.30;99.90;;;;;;5070198;28;20214;-51
2023/01/14 03:48:20;;;;;;;0.20;0.20;;;4.30;99.90;;;;;;5068725;28;20675;-50
2023/01/14 03:50:55;;;;;;;0.30;0.27;;;4.40;99.90;;;;;;5070056;28;20201;-51
2023/01/14 03:53:28;;;;;;;1.73;0.30;;;4.40;99.90;;;;;;5070285;28;20203;-50
2023/01/14 03:56:06;;;;;;;3.17;0.43;;;4.30;99.90;;;;;;5069722;28;20223;-51
2023/01/14 03:58:43;;;;;;;0.20;0.17;;;4.30;99.90;;;;;;5067942;28;20313;-51
2023/01/14 04:01:15;;;;;;;0.30;0.20;;;4.30;99.90;;;;;;5068896;28;20696;-50
2023/01/14 04:03:44;;;;;;;4.03;0.30;;;4.30;99.90;;;;;;5069880;28;20582;-51
2023/01/14 04:06:13;;;;;;;1.47;0.37;;;4.20;99.90;;;;;;5067748;28;20685;-51
2023/01/14 04:08:41;;;;;;;0.40;0.30;;;4.30;99.90;;;;;;5067588;28;20229;-51
2023/01/14 04:11:10;;;;;;;0.50;0.23;;;4.30;99.90;;;;;;5072130;28;20210;-50
2023/01/14 04:16:22;;;;;;;0.20;0.20;;;4.30;99.90;;;;;;5069693;28;20737;-50
2023/01/14 04:18:50;;;;;;;0.73;0.43;;;4.30;99.90;;;;;;5072482;28;20217;-51
2023/01/14 04:21:17;;;;;;;0.40;0.40;;;4.30;99.90;;;;;;5072136;28;20201;-51
2023/01/14 04:23:44;;;;;;;1.07;0.50;;;4.30;99.90;;;;;;5072868;28;20272;-51
2023/01/14 04:26:11;;;;;;;1.27;0.30;;;4.30;99.90;;;;;;5077731;28;20656;-51
2023/01/14 04:28:38;;;;;;;1.23;0.30;;;4.40;99.90;;;;;;5068814;28;20225;-50
2023/01/14 04:31:05;;;;;;;0.20;0.20;;;4.40;99.90;;;;;;5072216;28;20203;-52
2023/01/14 04:33:32;;;;;;;0.30;0.20;;;4.30;99.90;;;;;;5072299;28;20214;-51
2023/01/14 04:36:01;;;;;;;4.17;0.50;;;4.30;99.90;;;;;;5072820;28;20209;-51
2023/01/14 04:38:28;;;;;;;2.43;0.33;;;4.30;99.90;;;;;;5071174;28;20228;-50
2023/01/14 04:40:55;;;;;;;2.33;0.40;;;4.20;99.90;;;;;;5073083;28;20199;-50
2023/01/14 04:43:22;;;;;;;2.67;1.20;;;4.20;99.90;;;;;;5069327;28;20647;-51
2023/01/14 04:45:50;;;;;;;0.37;0.37;;;4.30;99.90;;;;;;5074705;28;20193;-51
2023/01/14 04:48:18;;;;;;;2.20;0.40;;;4.30;99.90;;;;;;5072910;28;20230;-52
2023/01/14 04:50:46;;;;;;;1.20;0.50;;;4.30;99.90;;;;;;5074107;28;20235;-50
2023/01/14 04:53:17;;;;;;;1.30;0.70;;;4.30;99.90;;;;;;5071789;28;20253;-52
2023/01/14 04:55:46;;;;;;;4.47;0.50;;;4.30;99.90;;;;;;5071628;28;20224;-51
2023/01/14 04:58:15;;;;;;;0.73;0.20;;;4.20;99.90;;;;;;5071130;28;20218;-51
2023/01/14 05:00:43;;;;;;;0.40;0.40;;;4.20;99.90;;;;;;5072780;28;20578;-51
2023/01/14 05:03:12;;;;;;;0.20;0.20;;;4.20;99.90;;;;;;5070724;28;20208;-51
2023/01/14 05:05:40;;;;;;;1.40;0.27;;;4.20;99.90;;;;;;5073172;28;21081;-50
2023/01/14 05:08:10;;;;;;;1.43;0.53;;;4.20;99.90;;;;;;5071187;28;20210;-50
2023/01/14 05:10:39;;;;;;;3.27;0.57;;;4.20;99.90;;;;;;5070078;28;20217;-51
2023/01/14 05:13:07;;;;;;;2.27;0.47;;;4.20;99.90;;;;;;5077028;28;20207;-51
2023/01/14 05:15:36;;;;;;;0.50;0.50;;;4.20;99.90;;;;;;5068871;28;20260;-51
2023/01/14 05:18:04;;;;;;;3.30;0.60;;;4.20;99.90;;;;;;5071010;28;20249;-49
2023/01/14 05:20:31;;;;;;;3.03;0.73;;;4.20;99.90;;;;;;5070131;28;20210;-51
2023/01/14 05:23:00;;;;;;;1.30;0.80;;;4.10;99.90;;;;;;5071985;28;20195;-51
2023/01/14 05:25:27;;;;;;;0.53;0.50;;;4.10;99.90;;;;;;5070695;28;20194;-49
2023/01/14 05:27:59;;;;;;;0.73;0.50;;;4.00;99.90;;;;;;5068403;28;20210;-50
2023/01/14 05:30:26;;;;;;;2.43;0.97;;;4.00;99.90;;;;;;5067222;28;20655;-52
2023/01/14 05:32:53;;;;;;;0.60;0.60;;;4.00;99.90;;;;;;5071241;28;20226;-50
2023/01/14 05:35:20;;;;;;;0.60;0.60;;;3.90;99.90;;;;;;5063980;28;20243;-51
2023/01/14 05:37:48;;;;;;;4.77;0.90;;;3.90;99.90;;;;;;5071553;28;20203;-51
2023/01/14 05:40:15;;;;;;;1.10;1.00;;;3.90;99.90;;;;;;5065470;28;20209;-51
2023/01/14 05:45:41;;;;;;;1.33;0.60;;;4.00;99.90;;;;;;5067575;28;20298;-51
2023/01/14 05:48:09;;;;;;;0.50;0.50;;;4.10;99.90;;;;;;5070759;28;20776;-50
2023/01/14 05:50:37;;;;;;;1.77;1.10;;;4.10;99.90;;;;;;5068554;28;20280;-51
2023/01/14 05:53:05;;;;;;;1.23;0.50;;;4.20;99.90;;;;;;5071375;28;20238;-51
2023/01/14 05:55:32;;;;;;;3.13;0.53;;;4.20;99.90;;;;;;5071658;28;20226;-51
2023/01/14 05:58:00;;;;;;;0.90;0.60;;;4.40;99.90;;;;;;5072793;28;20595;-53
2023/01/14 06:08:44;;;;;;;1.27;0.50;;;4.40;99.90;;;;;;5066918;28;20277;-51
2023/01/14 06:11:11;;;;;;;1.53;0.50;;;4.40;99.90;;;;;;5074304;28;20209;-51
2023/01/14 06:13:39;;;;;;;4.27;2.40;;;4.50;99.90;;;;;;5072344;28;20579;-51
2023/01/14 06:16:07;;;;;;;1.73;0.40;;;4.50;99.90;;;;;;5071137;28;20226;-51
2023/01/14 06:18:41;;;;;;;1.77;0.50;;;4.60;99.90;;;;;;5070677;28;20231;-51
2023/01/14 06:21:10;;;;;;;1.03;0.90;;;4.70;99.90;;;;;;5070694;28;20236;-50
2023/01/14 06:23:37;;;;;;;1.27;0.97;;;4.70;99.90;;;;;;5067731;28;20234;-52
2023/01/14 06:26:08;;;;;;;1.33;0.60;;;4.70;99.90;;;;;;5066790;28;20253;-51
2023/01/14 06:28:35;;;;;;;1.10;0.53;;;4.70;99.90;;;;;;5064749;28;20231;-52
2023/01/14 06:31:02;;;;;;;1.53;0.80;;;4.60;99.90;;;;;;5058361;28;20203;-50
2023/01/14 06:33:29;;;;;;;1.40;0.70;;;4.50;99.90;;;;;;5067034;28;20203;-50
2023/01/14 06:35:58;;;;;;;1.27;0.73;;;4.50;99.90;;;;;;5065972;28;20214;-50
2023/01/14 06:38:25;;;;;;;2.23;1.00;;;4.60;99.90;;;;;;5068027;28;20223;-52
2023/01/14 06:40:52;;;;;;;1.07;1.00;;;4.50;99.90;;;;;;5067884;28;20202;-51
2023/01/14 06:43:19;;;;;;;2.17;0.70;;;4.50;99.90;;;;;;5066143;28;20558;-52
2023/01/14 06:45:52;;;;;;;1.13;0.80;;;4.50;99.90;;;;;;5070131;28;20663;-51
2023/01/14 06:48:19;;;;;;;1.60;0.93;;;4.40;99.90;;;;;;5069098;28;20262;-51
2023/01/14 06:50:46;;;;;;;3.93;1.40;;;4.40;99.90;;;;;;5070451;28;20523;-50
2023/01/14 06:53:15;;;;;;;1.03;0.57;;;4.50;99.90;;;;;;5070757;28;20206;-51
2023/01/14 06:55:43;;;;;;;2.90;0.83;;;4.40;99.90;;;;;;5070659;28;20223;-52
2023/01/14 06:58:10;;;;;;;1.00;1.00;;;4.40;99.90;;;;;;5070642;28;20591;-51
2023/01/14 07:00:37;;;;;;;2.50;1.00;;;4.40;99.90;;;;;;5070829;28;20311;-51
2023/01/14 07:03:05;;;;;;;1.53;1.43;;;4.50;99.90;;;;;;5070764;28;20206;-51
2023/01/14 07:05:35;;;;;;;1.60;0.70;;;4.60;99.90;;;;;;5069718;28;20204;-51
2023/01/14 07:08:02;;;;;;;4.03;1.97;;;4.60;99.90;;;;;;5071375;28;20205;-53
2023/01/14 07:10:30;;;;;;;3.70;3.40;;;4.60;99.90;;;;;;5070482;28;20239;-51
2023/01/14 07:12:57;;;;;;;1.80;0.83;;;4.60;99.90;;;;;;5069779;28;20572;-50
2023/01/14 07:15:24;;;;;;;1.23;0.67;;;4.60;99.90;;;;;;5068757;28;20226;-50
2023/01/14 07:17:52;;;;;;;1.77;1.10;;;4.60;99.90;;;;;;5069313;28;20214;-52
2023/01/14 07:20:19;;;;;;;0.73;0.73;;;4.60;99.90;;;;;;5080502;28;20586;-51
2023/01/14 07:22:46;;;;;;;0.80;0.80;;;4.50;99.90;;;;;;5071663;28;20557;-51
2023/01/14 07:25:13;;;;;;;0.73;0.73;;;4.50;99.90;;;;;;5070414;28;20556;-51
2023/01/14 07:27:43;;;;;;;1.40;0.90;;;4.40;99.90;;;;;;5070002;28;20211;-54
2023/01/14 07:30:12;;;;;;;1.53;0.50;;;4.30;99.90;;;;;;5052350;28;20214;-51
2023/01/14 07:32:39;;;;;;;3.20;1.20;;;4.30;99.90;;;;;;5072338;28;20584;-51
2023/01/14 07:35:06;;;;;;;0.60;0.60;;;4.30;99.90;;;;;;5069703;28;20652;-52
2023/01/14 07:37:33;;;;;;;0.93;0.60;;;4.30;99.90;;;;;;5068712;28;20202;-51
2023/01/14 07:40:00;;;;;;;4.43;0.83;;;4.30;99.90;;;;;;5070134;28;20228;-51
2023/01/14 07:42:27;;;;;;;2.70;0.90;;;4.30;99.90;;;;;;5066113;28;20199;-51
2023/01/14 07:44:56;;;;;;;1.53;0.83;;;4.20;99.90;;;;;;5069295;28;20207;-50
2023/01/14 07:47:23;;;;;;;1.53;0.70;;;4.20;99.90;;;;;;5076064;28;20202;-51
2023/01/14 07:49:50;;;;;;;1.33;0.40;;;4.10;99.90;;;;;;5073474;28;20732;-50
2023/01/14 07:52:17;;;;;;;2.40;1.80;;;4.10;99.90;;;;;;5068924;28;20588;-51
2023/01/14 07:54:47;;;;;;;0.80;0.80;;;4.20;99.90;;;;;;5067528;28;20206;-49
2023/01/14 07:57:15;;;;;;;0.67;0.40;;;4.30;99.90;;;;;;5071332;28;20313;-51
2023/01/14 07:59:42;;;;;;;0.60;0.43;;;4.30;99.90;;;;;;5079643;28;20227;-51
2023/01/14 08:02:16;;;;;;;1.47;0.87;;;4.30;99.90;;;;;;5081030;28;20210;-50
2023/01/14 08:04:43;;;;;;;2.40;0.57;;;4.30;99.90;;;;;;5074033;28;20205;-51
2023/01/14 08:07:14;;;;;;;1.00;0.50;;;4.40;99.90;;;;;;5075181;28;20195;-51
2023/01/14 08:09:41;;;;;;;1.10;0.40;;;4.40;99.90;;;;;;5073649;28;20221;-50
2023/01/14 08:12:08;;;;;;;1.07;0.60;;;4.40;99.90;;;;;;5079079;28;20318;-50
2023/01/14 08:14:35;;;;;;;1.00;0.70;;;4.40;99.90;;;;;;5073022;28;20218;-52
2023/01/14 08:17:04;;;;;;;6.97;0.97;;;4.40;99.90;;;;;;5072397;28;20672;-50
2023/01/14 08:19:33;;;;;;;1.17;0.40;;;4.40;99.90;;;;;;5071377;28;20229;-52
2023/01/14 08:22:00;;;;;;;2.63;0.70;;;4.40;99.90;;;;;;5073594;28;20206;-51
2023/01/14 08:24:27;;;;;;;0.53;0.40;;;4.40;99.90;;;;;;5074578;28;20623;-50
2023/01/14 08:26:54;;;;;;;0.73;0.70;;;4.40;99.90;;;;;;5073305;28;20202;-51
2023/01/14 08:29:21;;;;;;;1.57;0.40;;;4.60;99.90;;;;;;5070987;28;20237;-51
2023/01/14 08:31:54;;;;;;;0.60;0.60;;;4.80;99.90;;;;;;5072855;28;20212;-51
2023/01/14 08:34:21;;;;;;;1.23;0.60;;;4.90;99.90;;;;;;5073316;28;20303;-50
2023/01/14 08:36:50;;;;;;;0.40;0.40;;;5.20;99.90;;;;;;5073192;28;20227;-50
2023/01/14 08:39:18;;;;;;;1.13;0.40;;;5.40;99.90;;;;;;5071990;28;20229;-51
2023/01/14 08:41:45;;;;;;;0.53;0.40;;;5.40;99.90;;;;;;5074356;28;20211;-50
2023/01/14 08:44:12;;;;;;;4.33;3.93;;;5.40;99.90;;;;;;5072066;28;20675;-51
2023/01/14 08:46:41;;;;;;;4.27;3.87;;;5.30;99.90;;;;;;5063567;28;20199;-51
2023/01/14 08:49:08;;;;;;;4.33;1.93;;;5.60;99.90;;;;;;5072636;28;20263;-51
2023/01/14 08:51:35;;;;;;;2.67;1.30;;;5.90;99.90;;;;;;5073239;28;20209;-51
2023/01/14 08:54:04;;;;;;;0.90;0.70;;;6.10;99.90;;;;;;5077037;28;20199;-50
2023/01/14 08:56:31;;;;;;;0.57;0.57;;;6.40;99.90;;;;;;5072507;28;20691;-51
2023/01/14 08:58:58;;;;;;;0.73;0.57;;;6.60;99.90;;;;;;5071600;28;20243;-51
2023/01/14 09:01:26;;;;;;;1.17;0.47;;;6.80;99.90;;;;;;5073085;28;20245;-51
2023/01/14 09:03:57;;;;;;;1.50;0.30;;;6.70;99.90;;;;;;5072955;28;20200;-51
2023/01/14 09:06:24;;;;;;;2.90;0.40;;;6.50;99.90;;;;;;5072088;28;20693;-51
2023/01/14 09:17:13;;;;;;;1.53;0.60;;;5.60;99.90;;;;;;5052775;28;20279;-51
2023/01/14 09:19:44;;;;;;;0.73;0.23;;;5.70;99.90;;;;;;5065844;28;20744;-51
2023/01/14 09:22:17;;;;;;;0.60;0.30;;;6.30;99.90;;;;;;5076554;28;20199;-51
2023/01/14 09:24:44;;;;;;;1.33;0.40;;;6.70;99.90;;;;;;5074759;28;20629;-52
2023/01/14 09:27:13;;;;;;;0.60;0.60;;;6.80;99.90;;;;;;5072931;28;20200;-52
2023/01/14 09:29:40;;;;;;;0.53;0.40;;;6.60;99.90;;;;;;5072534;28;20230;-50
2023/01/14 09:32:13;;;;;;;1.77;0.70;;;6.60;99.90;;;;;;5088751;28;20208;-52
2023/01/14 09:34:41;;;;;;;2.47;0.50;;;6.70;99.90;;;;;;5087374;28;20252;-52
2023/01/14 09:37:08;;;;;;;2.20;0.60;;;6.70;99.90;;;;;;5072656;28;20806;-53
2023/01/14 09:39:35;;;;;;;3.13;0.40;;;6.70;99.90;;;;;;5072429;28;20716;-51
2023/01/14 09:42:09;;;;;;;0.70;0.40;;;6.70;99.90;;;;;;5072648;28;20260;-51
2023/01/14 09:44:40;;;;;;;1.03;0.50;;;6.80;99.90;;;;;;5071226;28;20207;-51
2023/01/14 09:47:13;;;;;;;0.40;0.40;;;6.70;99.90;;;;;;5059605;28;20201;-52
2023/01/14 09:49:42;;;;;;;1.70;0.60;;;6.60;99.90;;;;;;5058965;28;20289;-51
2023/01/14 09:52:38;;;;;;;0.90;0.50;;;6.70;99.90;;;;;;5077000;28;20542;-52
2023/01/14 09:55:11;;;;;;;1.07;0.60;;;6.60;99.90;;;;;;5058212;28;20210;-52
2023/01/14 09:57:47;;;;;;;0.73;0.40;;;6.50;99.90;;;;;;5072222;28;20627;-50
2023/01/14 10:00:32;;;;;;;0.73;0.30;;;6.60;99.90;;;;;;5071392;28;20288;-51
2023/01/14 10:03:13;;;;;;;0.57;0.50;;;6.60;99.90;;;;;;5053705;28;20209;-52
2023/01/14 10:05:43;;;;;;;3.10;0.53;;;6.60;99.90;;;;;;5071110;28;20336;-50
2023/01/14 10:08:14;;;;;;;1.17;0.30;;;6.70;99.90;;;;;;5076303;28;20216;-51
2023/01/14 10:10:43;;;;;;;0.30;0.30;;;6.80;99.90;;;;;;5074211;28;20200;-52
2023/01/14 10:13:15;;;;;;;3.00;0.50;;;6.90;99.90;;;;;;5069939;28;20234;-51
2023/01/14 10:15:48;;;;;;;1.13;0.27;;;6.80;99.90;;;;;;5072104;28;20265;-51
2023/01/14 10:18:23;;;;;;;1.23;0.50;;;6.90;99.90;;;;;;5071786;28;20226;-52
2023/01/14 10:20:54;;;;;;;1.33;0.23;;;6.90;99.90;;;;;;5071954;28;20676;-52
2023/01/14 10:23:25;;;;;;;0.30;0.30;;;7.00;99.90;;;;;;5062195;28;20268;-53
2023/01/14 10:25:54;;;;;;;4.60;0.70;;;7.20;99.90;;;;;;5071647;28;20622;-52
2023/01/14 10:28:24;;;;;;;0.60;0.20;;;7.60;99.90;;;;;;5071416;28;20222;-52
2023/01/14 10:30:53;;;;;;;0.30;0.20;;;7.90;99.90;;;;;;5071718;28;20198;-51
2023/01/14 10:33:22;;;;;;;0.40;0.30;;;8.10;99.90;;;;;;5071621;28;20209;-52
2023/01/14 10:35:55;;;;;;;0.37;0.30;;;8.30;99.90;;;;;;5071511;28;20344;-52
2023/01/14 10:38:25;;;;;;;1.67;0.60;;;8.50;99.90;;;;;;5076472;28;20712;-53
2023/01/14 10:40:56;;;;;;;0.40;0.33;;;8.50;99.90;;;;;;5072261;28;20636;-52
2023/01/14 10:43:30;;;;;;;0.73;0.70;;;8.60;99.90;;;;;;5071699;28;20269;-51
2023/01/14 10:45:59;;;;;;;3.13;0.80;;;8.50;99.90;;;;;;5071646;28;20198;-53
2023/01/14 10:48:30;;;;;;;2.23;0.53;;;8.70;99.90;;;;;;5071050;28;20226;-51
2023/01/14 10:51:31;;;;;;;2.20;0.50;;;8.70;99.90;;;;;;5071368;28;20288;-52
2023/01/14 10:54:11;;;;;;;4.77;2.20;;;8.80;99.90;;;;;;5066777;28;20583;-52
2023/01/14 10:56:39;;;;;;;2.30;0.70;;;8.80;99.90;;;;;;5068598;28;20218;-53
2023/01/14 10:59:34;;;;;;;3.70;0.77;;;8.80;99.90;;;;;;5070938;28;20221;-53
2023/01/14 11:02:03;;;;;;;0.50;0.30;;;8.80;99.90;;;;;;5071522;28;20552;-52
2023/01/14 11:04:32;;;;;;;0.20;0.20;;;9.00;99.90;;;;;;5071075;28;20207;-52
2023/01/14 11:07:07;;;;;;;0.20;0.20;;;9.10;99.90;;;;;;5070868;28;20328;-52
2023/01/14 11:09:34;;;;;;;0.50;0.30;;;9.20;99.90;;;;;;5071170;28;20226;-51
2023/01/14 11:12:01;;;;;;;0.50;0.50;;;9.40;99.90;;;;;;5078472;28;20203;-52
2023/01/14 11:14:31;;;;;;;0.20;0.20;;;9.50;99.90;;;;;;5070706;28;20199;-53
2023/01/14 11:16:59;;;;;;;2.50;0.30;;;9.50;99.90;;;;;;5066667;28;20690;-51
2023/01/14 11:19:28;;;;;;;1.90;0.30;;;9.60;99.90;;;;;;5069504;28;20224;-52
2023/01/14 11:21:56;;;;;;;0.20;0.20;;;9.60;99.90;;;;;;5070546;28;20199;-52
2023/01/14 11:24:30;;;;;;;0.30;0.20;;;9.80;99.90;;;;;;5074744;28;20268;-51
2023/01/14 11:27:02;;;;;;;1.80;0.20;;;9.80;99.90;;;;;;5064567;28;20191;-53
2023/01/14 11:29:30;;;;;;;2.03;0.23;;;9.80;99.90;;;;;;5070384;28;20304;-51
2023/01/14 11:32:09;;;;;;;0.20;0.20;;;9.90;99.90;;;;;;5054537;28;20211;-52
2023/01/14 11:34:41;;;;;;;0.30;0.10;;;9.90;99.90;;;;;;5054564;28;20207;-53
2023/01/14 11:37:20;;;;;;;0.33;0.20;;;9.90;99.90;;;;;;5054168;28;20706;-52
2023/01/14 11:39:50;;;;;;;0.83;0.37;;;9.90;99.90;;;;;;5054296;28;20219;-52
2023/01/14 11:42:34;;;;;;;1.40;0.40;;;10.00;99.90;;;;;;5063107;28;20201;-52
2023/01/14 11:45:04;;;;;;;0.37;0.30;;;10.00;99.90;;;;;;5071425;28;20261;-52
2023/01/14 11:47:44;;;;;;;0.87;0.70;;;10.10;99.90;;;;;;5079535;28;20263;-52
2023/01/14 11:50:18;;;;;;;1.43;0.50;;;10.10;99.90;;;;;;5077309;28;20236;-52
2023/01/14 11:52:57;;;;;;;0.60;0.33;;;10.20;99.90;;;;;;5074284;28;20653;-52
2023/01/14 11:55:26;;;;;;;0.30;0.30;;;10.30;99.90;;;;;;5068603;28;20278;-52
2023/01/14 11:57:54;;;;;;;0.40;0.20;;;10.30;99.90;;;;;;5070712;28;20231;-51
2023/01/14 12:00:21;;;;;;;1.17;0.30;;;10.40;99.90;;;;;;5073246;28;20268;-53
2023/01/14 12:02:56;;;;;;;1.23;0.70;;;10.40;99.90;;;;;;5072430;28;20646;-52
2023/01/14 12:05:25;;;;;;;0.60;0.40;;;10.30;99.90;;;;;;5073179;28;20207;-52
2023/01/14 12:07:55;;;;;;;0.73;0.50;;;10.30;99.90;;;;;;5071712;28;20255;-52
2023/01/14 12:10:23;;;;;;;0.77;0.20;;;10.40;99.90;;;;;;5072450;28;20717;-51
2023/01/14 12:18:35;;;;;;;0.73;0.17;;;10.40;99.90;;;;;;5067993;28;20316;-52
2023/01/14 12:21:06;;;;;;;0.40;0.40;;;10.40;99.90;;;;;;5068895;28;20201;-52
2023/01/14 12:23:43;;;;;;;0.40;0.33;;;10.30;99.90;;;;;;5072352;28;20197;-52
2023/01/14 12:26:19;;;;;;;0.30;0.30;;;10.40;99.90;;;;;;5071900;28;20208;-53
2023/01/14 12:28:50;;;;;;;0.73;0.50;;;10.50;99.90;;;;;;5071480;28;20713;-52
2023/01/14 12:31:24;;;;;;;0.40;0.10;;;10.50;99.90;;;;;;5072303;28;20210;-51
2023/01/14 12:33:57;;;;;;;1.13;0.20;;;10.50;99.90;;;;;;5071243;28;20214;-53
2023/01/14 12:36:30;;;;;;;0.23;0.13;;;10.60;99.90;;;;;;5069205;28;20203;-52
2023/01/14 12:47:28;;;;;;;1.60;1.00;;;10.20;99.90;;;;;;5070633;28;20238;-53
2023/01/14 12:49:56;;;;;;;0.93;0.63;;;10.20;99.90;;;;;;5072856;28;20231;-52
2023/01/14 12:52:28;;;;;;;1.93;0.93;;;10.20;99.90;;;;;;5073070;28;20200;-52
2023/01/14 12:54:57;;;;;;;0.50;0.50;;;10.20;99.90;;;;;;5073251;28;20199;-52
2023/01/14 12:57:25;;;;;;;1.43;0.70;;;10.30;99.90;;;;;;5073630;28;20312;-52
2023/01/14 13:00:00;;;;;;;0.30;0.30;;;10.20;99.90;;;;;;5072848;28;20269;-53
2023/01/14 13:02:34;;;;;;;0.50;0.50;;;10.20;99.90;;;;;;5075489;28;20673;-52
2023/01/14 13:05:06;;;;;;;1.60;0.57;;;10.20;99.90;;;;;;5066871;28;20199;-52
2023/01/14 13:07:38;;;;;;;0.80;0.73;;;10.10;99.90;;;;;;5072835;28;20207;-52
2023/01/14 13:10:08;;;;;;;4.10;1.30;;;10.10;99.90;;;;;;5072678;28;20223;-52
2023/01/14 13:12:38;;;;;;;1.67;1.10;;;10.10;99.90;;;;;;5072958;28;20222;-52
2023/01/14 13:15:08;;;;;;;3.90;1.07;;;9.90;99.90;;;;;;5068372;28;20723;-51
2023/01/14 13:17:37;;;;;;;4.33;1.27;;;9.70;99.90;;;;;;5067886;28;21831;-52
2023/01/14 13:20:12;;;;;;;2.00;0.90;;;9.70;99.90;;;;;;5067271;28;20257;-51
2023/01/14 13:22:45;;;;;;;1.27;0.70;;;9.60;99.90;;;;;;5070940;28;20249;-52
2023/01/14 13:25:33;;;;;;;1.50;0.67;;;9.40;99.90;;;;;;5072656;28;20308;-52
2023/01/14 13:28:04;;;;;;;2.33;0.50;;;9.30;99.90;;;;;;5063982;28;20217;-50
2023/01/14 13:30:49;;;;;;;0.43;0.43;;;9.10;99.90;;;;;;5071854;28;20652;-52
2023/01/14 13:33:27;;;;;;;2.33;0.90;;;9.20;99.90;;;;;;5072017;28;20242;-53
2023/01/14 13:36:21;;;;;;;1.20;1.10;;;9.10;99.90;;;;;;5072996;28;20198;-52
2023/01/14 13:39:04;;;;;;;3.27;1.20;;;9.10;99.90;;;;;;5020462;28;20232;-51
2023/01/14 13:41:40;;;;;;;7.07;2.70;;;9.10;99.90;;;;;;5071769;28;20208;-52
2023/01/14 13:44:20;;;;;;;0.93;0.93;;;9.10;99.90;;;;;;5070617;28;20678;-53
2023/01/14 13:46:51;;;;;;;10.57;7.80;;;9.10;99.90;;;;;;5070129;28;20210;-52
2023/01/14 13:49:27;;;;;;;3.83;2.93;;;9.10;99.90;;;;;;5068553;28;20226;-51
2023/01/14 13:52:01;;;;;;;2.13;1.83;;;9.20;99.90;;;;;;5069488;28;20212;-52